createdAt,value
2022-08-26T00:01:31.578Z,20.82
2022-08-26T00:04:19.242Z,20.77
2022-08-26T00:07:06.890Z,20.59
2022-08-26T00:09:55.294Z,20.18
2022-08-26T00:12:42.990Z,20.52
2022-08-26T00:15:30.589Z,20.73
2022-08-26T00:18:22.584Z,20.59
2022-08-26T00:21:10.369Z,20.37
2022-08-26T00:23:57.970Z,20.30
2022-08-26T00:26:45.531Z,20.42
2022-08-26T00:29:33.681Z,20.31
2022-08-26T00:32:24.993Z,20.20
2022-08-26T00:35:13.749Z,20.08
2022-08-26T00:38:01.562Z,20.15
2022-08-26T00:40:49.413Z,20.52
2022-08-26T00:43:47.381Z,20.54
2022-08-26T00:46:36.019Z,20.10
2022-08-26T00:49:23.673Z,19.98
2022-08-26T00:52:11.984Z,20.11
2022-08-26T00:55:00.684Z,20.11
2022-08-26T00:57:48.296Z,20.03
2022-08-26T01:00:36.153Z,19.88
2022-08-26T01:03:23.949Z,19.95
2022-08-26T01:06:13.216Z,19.89
2022-08-26T01:09:00.827Z,19.54
2022-08-26T01:11:48.423Z,19.62
2022-08-26T01:14:36.745Z,19.47
2022-08-26T01:17:24.452Z,19.37
2022-08-26T01:20:12.033Z,19.37
2022-08-26T01:23:01.651Z,19.56
2022-08-26T01:25:50.871Z,19.79
2022-08-26T01:28:38.877Z,19.83
2022-08-26T01:31:30.335Z,19.57
2022-08-26T01:34:17.953Z,18.89
2022-08-26T01:37:07.219Z,18.50
2022-08-26T01:39:55.440Z,18.61
2022-08-26T01:42:43.059Z,19.03
2022-08-26T01:45:30.690Z,19.31
2022-08-26T01:48:18.310Z,19.43
2022-08-26T01:51:05.926Z,19.47
2022-08-26T01:53:54.487Z,19.33
2022-08-26T01:56:42.334Z,19.71
2022-08-26T01:59:31.909Z,19.39
2022-08-26T02:02:19.575Z,18.94
2022-08-26T02:05:07.154Z,19.00
2022-08-26T02:07:54.755Z,19.35
2022-08-26T02:10:42.329Z,19.53
2022-08-26T02:13:30.331Z,19.98
2022-08-26T02:16:17.977Z,19.82
2022-08-26T02:19:05.597Z,19.63
2022-08-26T02:21:55.960Z,20.12
2022-08-26T02:24:43.629Z,20.63
2022-08-26T02:27:32.403Z,21.40
2022-08-26T02:30:20.371Z,21.05
2022-08-26T02:33:08.117Z,20.51
2022-08-26T02:35:55.830Z,20.18
2022-08-26T02:38:43.419Z,20.37
2022-08-26T02:41:33.794Z,20.24
2022-08-26T02:44:21.365Z,19.98
2022-08-26T02:47:08.993Z,19.81
2022-08-26T02:49:56.607Z,20.11
2022-08-26T02:52:44.205Z,20.08
2022-08-26T02:55:31.789Z,19.86
2022-08-26T02:58:19.379Z,19.74
2022-08-26T03:01:07.023Z,19.63
2022-08-26T03:03:55.091Z,19.95
2022-08-26T03:06:42.672Z,19.88
2022-08-26T03:09:34.602Z,20.24
2022-08-26T03:12:22.185Z,20.36
2022-08-26T03:15:17.776Z,20.24
2022-08-26T03:18:05.654Z,20.09
2022-08-26T03:20:54.774Z,19.68
2022-08-26T03:23:42.398Z,19.54
2022-08-26T03:26:30.378Z,19.43
2022-08-26T03:29:17.962Z,19.29
2022-08-26T03:32:05.562Z,19.18
2022-08-26T03:34:53.143Z,18.99
2022-08-26T03:37:40.737Z,19.50
2022-08-26T03:40:29.168Z,19.92
2022-08-26T03:43:16.881Z,20.82
2022-08-26T03:46:04.474Z,21.54
2022-08-26T03:48:52.526Z,21.91
2022-08-26T03:51:40.109Z,22.40
2022-08-26T03:54:29.826Z,22.71
2022-08-26T03:57:17.414Z,22.68
2022-08-26T04:00:06.963Z,21.98
2022-08-26T04:02:54.560Z,21.09
2022-08-26T04:05:42.198Z,20.55
2022-08-26T04:08:29.825Z,20.05
2022-08-26T04:11:17.409Z,19.74
2022-08-26T04:14:05.226Z,20.39
2022-08-26T04:16:52.815Z,20.90
2022-08-26T04:19:43.005Z,21.36
2022-08-26T04:22:32.613Z,21.68
2022-08-26T04:25:20.619Z,22.10
2022-08-26T04:28:08.274Z,22.27
2022-08-26T04:30:56.939Z,22.74
2022-08-26T04:33:44.525Z,23.19
2022-08-26T04:36:34.135Z,23.25
2022-08-26T04:39:23.361Z,23.38
2022-08-26T04:42:12.871Z,23.63
2022-08-26T04:45:00.455Z,23.92
2022-08-26T04:47:48.047Z,23.65
2022-08-26T04:50:35.620Z,23.74
2022-08-26T04:53:23.489Z,24.14
2022-08-26T04:56:12.412Z,24.33
2022-08-26T04:59:00.022Z,24.49
2022-08-26T05:01:47.619Z,24.67
2022-08-26T05:04:35.754Z,24.74
2022-08-26T05:07:25.470Z,24.91
2022-08-26T05:22:52.123Z,24.67
2022-08-26T05:25:20.900Z,24.72
2022-08-26T05:27:48.387Z,24.70
2022-08-26T05:30:15.836Z,24.88
2022-08-26T05:32:43.691Z,25.00
2022-08-26T05:35:11.166Z,24.96
2022-08-26T05:37:38.597Z,25.09
2022-08-26T05:40:06.192Z,25.34
2022-08-26T05:42:33.515Z,25.51
2022-08-26T05:45:01.405Z,25.71
2022-08-26T05:47:28.865Z,25.82
2022-08-26T05:49:56.295Z,25.77
2022-08-26T05:52:25.867Z,26.00
2022-08-26T05:54:53.695Z,26.04
2022-08-26T05:57:21.130Z,26.04
2022-08-26T05:59:50.652Z,26.12
2022-08-26T06:02:18.237Z,26.15
2022-08-26T06:04:46.787Z,26.14
2022-08-26T06:07:14.252Z,26.22
2022-08-26T06:09:42.120Z,26.34
2022-08-26T06:12:09.563Z,26.31
2022-08-26T06:14:37.030Z,26.06
2022-08-26T06:17:04.500Z,26.39
2022-08-26T06:19:34.447Z,26.30
2022-08-26T06:22:02.262Z,26.09
2022-08-26T06:24:29.755Z,26.28
2022-08-26T06:26:57.592Z,26.26
2022-08-26T06:29:25.058Z,26.12
2022-08-26T06:31:52.336Z,26.27
2022-08-26T06:34:19.971Z,25.84
2022-08-26T06:36:47.531Z,25.43
2022-08-26T06:39:14.875Z,25.59
2022-08-26T06:41:43.475Z,25.41
2022-08-26T06:44:11.028Z,25.21
2022-08-26T06:46:38.501Z,25.60
2022-08-26T06:49:05.936Z,25.53
2022-08-26T06:51:35.465Z,25.35
2022-08-26T06:54:03.748Z,25.20
2022-08-26T06:56:31.212Z,25.03
2022-08-26T06:58:58.671Z,25.06
2022-08-26T07:01:26.159Z,24.83
2022-08-26T07:03:54.242Z,24.62
2022-08-26T07:06:24.325Z,24.91
2022-08-26T07:08:53.026Z,24.54
2022-08-26T07:11:20.431Z,24.43
2022-08-26T07:13:47.938Z,24.84
2022-08-26T07:16:15.366Z,24.91
2022-08-26T07:18:44.967Z,24.75
2022-08-26T07:21:13.167Z,24.65
2022-08-26T07:23:41.832Z,25.10
2022-08-26T07:26:09.674Z,24.98
2022-08-26T07:28:37.151Z,24.84
2022-08-26T07:31:04.657Z,25.11
2022-08-26T07:33:34.904Z,24.86
2022-08-26T07:36:02.369Z,25.14
2022-08-26T07:38:31.903Z,25.27
2022-08-26T07:41:01.388Z,24.40
2022-08-26T07:43:28.853Z,24.43
2022-08-26T07:45:56.738Z,24.28
2022-08-26T07:48:24.170Z,24.75
2022-08-26T07:50:51.642Z,24.87
2022-08-26T07:53:20.713Z,24.84
2022-08-26T07:55:48.197Z,24.88
2022-08-26T07:58:15.637Z,24.94
2022-08-26T08:00:43.098Z,24.29
2022-08-26T08:03:12.287Z,24.46
2022-08-26T08:05:41.716Z,24.84
2022-08-26T08:08:27.126Z,24.79
2022-08-26T08:10:55.545Z,24.44
2022-08-26T08:13:22.966Z,24.47
2022-08-26T08:15:51.191Z,24.25
2022-08-26T08:18:20.527Z,24.55
2022-08-26T08:20:59.482Z,24.38
2022-08-26T08:23:32.852Z,24.11
2022-08-26T08:26:00.272Z,24.20
2022-08-26T08:28:27.714Z,24.33
2022-08-26T08:30:55.226Z,24.46
2022-08-26T08:33:22.567Z,24.26
2022-08-26T08:35:53.012Z,24.22
2022-08-26T08:38:20.423Z,23.81
2022-08-26T08:40:49.883Z,24.10
2022-08-26T08:43:17.159Z,23.96
2022-08-26T08:45:44.496Z,24.30
2022-08-26T08:48:14.783Z,24.55
2022-08-26T08:50:42.223Z,24.55
2022-08-26T08:53:10.105Z,24.54
2022-08-26T08:55:37.564Z,25.14
2022-08-26T08:58:06.301Z,25.00
2022-08-26T09:00:39.658Z,25.22
2022-08-26T09:03:07.310Z,24.78
2022-08-26T09:05:37.542Z,25.31
2022-08-26T09:08:06.584Z,25.60
2022-08-26T09:10:34.184Z,25.24
2022-08-26T09:13:02.633Z,25.10
2022-08-26T09:15:30.610Z,24.73
2022-08-26T09:17:58.205Z,23.81
2022-08-26T09:20:25.666Z,23.65
2022-08-26T09:22:53.113Z,24.74
2022-08-26T09:25:20.568Z,24.54
2022-08-26T09:27:50.483Z,24.44
2022-08-26T09:30:18.346Z,25.68
2022-08-26T09:32:56.051Z,25.66
2022-08-26T09:35:23.898Z,25.67
2022-08-26T09:40:20.358Z,25.56
2022-08-26T09:42:48.203Z,24.58
2022-08-26T09:45:17.126Z,25.20
2022-08-26T09:47:44.885Z,25.11
2022-08-26T09:50:13.169Z,25.11
2022-08-26T09:52:42.777Z,26.00
2022-08-26T09:55:10.544Z,24.76
2022-08-26T09:57:37.985Z,25.11
2022-08-26T10:00:07.471Z,24.86
2022-08-26T10:02:34.760Z,25.15
2022-08-26T10:05:09.110Z,25.34
2022-08-26T10:07:36.839Z,25.08
2022-08-26T10:10:05.091Z,24.52
2022-08-26T10:12:32.585Z,25.50
2022-08-26T10:15:00.057Z,23.81
2022-08-26T10:17:27.877Z,24.05
2022-08-26T10:19:58.200Z,25.23
2022-08-26T10:22:25.667Z,23.99
2022-08-26T10:24:55.133Z,23.31
2022-08-26T10:27:23.086Z,22.70
2022-08-26T10:29:51.313Z,22.85
2022-08-26T10:32:20.959Z,23.25
2022-08-26T10:34:48.681Z,23.20
2022-08-26T10:37:16.756Z,23.27
2022-08-26T10:39:44.439Z,23.95
2022-08-26T10:42:13.947Z,23.09
2022-08-26T10:44:41.375Z,23.58
2022-08-26T10:47:11.727Z,23.44
2022-08-26T10:49:39.167Z,23.81
2022-08-26T10:52:12.372Z,23.71
2022-08-26T10:54:43.946Z,24.73
2022-08-26T10:57:11.384Z,23.27
2022-08-26T10:59:38.832Z,22.60
2022-08-26T11:02:08.323Z,22.56
2022-08-26T11:04:37.190Z,23.43
2022-08-26T11:07:04.909Z,24.10
2022-08-26T11:09:33.983Z,24.28
2022-08-26T11:12:06.863Z,24.16
2022-08-26T11:14:46.068Z,24.67
2022-08-26T11:17:22.181Z,24.57
2022-08-26T11:20:00.762Z,24.96
2022-08-26T11:22:28.713Z,25.04
2022-08-26T11:24:55.987Z,24.78
2022-08-26T11:27:23.471Z,24.65
2022-08-26T11:29:51.728Z,24.76
2022-08-26T11:32:20.412Z,25.20
2022-08-26T11:34:50.292Z,25.09
2022-08-26T11:39:54.029Z,24.82
2022-08-26T11:42:22.549Z,24.90
2022-08-26T11:44:50.813Z,25.22
2022-08-26T11:47:18.274Z,24.46
2022-08-26T11:49:46.585Z,24.82
2022-08-26T11:52:13.999Z,24.07
2022-08-26T11:54:41.475Z,24.14
2022-08-26T11:57:11.593Z,24.34
2022-08-26T11:59:39.711Z,24.14
2022-08-26T12:02:07.544Z,23.04
2022-08-26T12:04:35.186Z,23.22
2022-08-26T12:07:04.478Z,23.65
2022-08-26T12:09:36.140Z,22.88
2022-08-26T12:12:03.517Z,23.17
2022-08-26T12:14:31.367Z,23.16
2022-08-26T12:17:00.483Z,22.24
2022-08-26T12:19:27.936Z,21.76
2022-08-26T12:21:55.401Z,21.98
2022-08-26T12:24:22.885Z,22.13
2022-08-26T12:26:53.999Z,22.55
2022-08-26T12:29:26.808Z,22.16
2022-08-26T12:31:55.152Z,22.50
2022-08-26T12:34:23.009Z,22.25
2022-08-26T12:36:51.267Z,22.26
2022-08-26T12:39:18.670Z,23.16
2022-08-26T12:41:48.150Z,22.33
2022-08-26T12:44:15.680Z,22.98
2022-08-26T12:46:45.666Z,22.69
2022-08-26T12:49:16.660Z,22.99
2022-08-26T12:51:44.142Z,23.10
2022-08-26T12:54:11.580Z,23.58
2022-08-26T12:56:39.033Z,23.21
2022-08-26T12:59:06.581Z,24.16
2022-08-26T13:01:34.229Z,24.57
2022-08-26T13:04:01.825Z,24.52
2022-08-26T13:06:29.272Z,23.81
2022-08-26T13:08:56.755Z,24.92
2022-08-26T13:11:24.206Z,24.17
2022-08-26T13:13:51.694Z,24.61
2022-08-26T13:16:19.164Z,24.35
2022-08-26T13:18:46.558Z,24.98
2022-08-26T13:21:14.043Z,25.64
2022-08-26T13:23:42.634Z,25.88
2022-08-26T13:26:10.204Z,25.21
2022-08-26T13:28:37.644Z,24.35
2022-08-26T13:31:05.151Z,24.46
2022-08-26T13:33:33.781Z,24.46
2022-08-26T13:36:01.643Z,24.64
2022-08-26T13:38:33.267Z,24.61
2022-08-26T13:41:01.494Z,24.28
2022-08-26T13:43:28.938Z,23.95
2022-08-26T13:45:56.240Z,24.79
2022-08-26T13:48:23.886Z,23.54
2022-08-26T13:50:51.193Z,23.48
2022-08-26T13:53:18.755Z,23.46
2022-08-26T13:55:46.206Z,24.25
2022-08-26T13:58:13.701Z,24.47
2022-08-26T14:00:41.190Z,24.34
2022-08-26T14:03:13.085Z,24.11
2022-08-26T14:05:40.982Z,23.70
2022-08-26T14:08:08.515Z,23.31
2022-08-26T14:10:36.299Z,23.99
2022-08-26T14:13:03.769Z,24.82
2022-08-26T14:15:32.025Z,24.30
2022-08-26T14:17:59.476Z,23.98
2022-08-26T14:20:27.383Z,24.52
2022-08-26T14:23:12.956Z,24.55
2022-08-26T14:25:41.524Z,23.76
2022-08-26T14:28:08.813Z,24.17
2022-08-26T14:30:36.444Z,23.51
2022-08-26T14:33:03.913Z,24.10
2022-08-26T14:35:31.352Z,24.16
2022-08-26T14:37:58.832Z,23.66
2022-08-26T14:40:26.430Z,24.15
2022-08-26T14:42:54.141Z,24.25
2022-08-26T14:45:21.568Z,24.14
2022-08-26T14:47:49.039Z,23.89
2022-08-26T14:50:16.318Z,24.48
2022-08-26T14:52:46.042Z,23.86
2022-08-26T14:55:13.324Z,24.23
2022-08-26T14:57:40.937Z,23.92
2022-08-26T15:00:08.244Z,24.34
2022-08-26T15:02:35.618Z,24.21
2022-08-26T15:05:03.283Z,23.96
2022-08-26T15:07:30.774Z,23.72
2022-08-26T15:09:58.199Z,23.58
2022-08-26T15:12:25.657Z,23.37
2022-08-26T15:14:53.141Z,24.21
2022-08-26T15:17:20.577Z,24.20
2022-08-26T15:19:50.146Z,24.33
2022-08-26T15:22:17.559Z,23.96
2022-08-26T15:24:45.022Z,23.46
2022-08-26T15:27:12.465Z,23.35
2022-08-26T15:29:39.928Z,23.44
2022-08-26T15:32:07.388Z,23.14
2022-08-26T15:34:34.842Z,23.11
2022-08-26T15:37:02.286Z,22.80
2022-08-26T15:39:29.745Z,22.99
2022-08-26T15:41:57.222Z,22.96
2022-08-26T15:44:24.651Z,22.94
2022-08-26T15:46:56.565Z,22.65
2022-08-26T15:49:25.711Z,22.34
2022-08-26T15:51:53.254Z,22.09
2022-08-26T15:54:20.660Z,22.19
2022-08-26T15:56:48.112Z,21.84
2022-08-26T15:59:15.539Z,20.63
2022-08-26T16:01:43.562Z,19.97
2022-08-26T16:04:10.891Z,19.91
2022-08-26T16:06:38.338Z,19.79
2022-08-26T16:09:05.798Z,19.71
2022-08-26T16:11:33.275Z,19.78
2022-08-26T16:14:00.724Z,19.69
2022-08-26T16:16:28.197Z,19.78
2022-08-26T16:18:55.618Z,19.98
2022-08-26T16:21:23.190Z,20.08
2022-08-26T16:23:50.539Z,20.60
2022-08-26T16:26:17.989Z,20.96
2022-08-26T16:28:45.478Z,21.52
2022-08-26T16:31:12.980Z,22.17
2022-08-26T16:33:40.420Z,22.49
2022-08-26T16:36:10.001Z,22.70
2022-08-26T16:38:37.327Z,22.67
2022-08-26T16:41:04.790Z,23.13
2022-08-26T16:43:32.265Z,23.20
2022-08-26T16:45:59.753Z,23.07
2022-08-26T16:48:27.180Z,24.08
2022-08-26T16:50:54.613Z,24.51
2022-08-26T16:53:22.069Z,24.00
2022-08-26T16:55:49.596Z,24.53
2022-08-26T16:58:17.087Z,24.40
2022-08-26T17:00:44.358Z,24.09
2022-08-26T17:03:11.953Z,23.90
2022-08-26T17:05:39.282Z,24.18
2022-08-26T17:08:06.807Z,24.13
2022-08-26T17:10:34.145Z,24.57
2022-08-26T17:13:01.756Z,24.93
2022-08-26T17:15:29.345Z,24.83
2022-08-26T17:17:56.653Z,24.55
2022-08-26T17:20:24.111Z,24.19
2022-08-26T17:22:51.567Z,23.46
2022-08-26T17:25:19.015Z,23.23
2022-08-26T17:27:46.621Z,22.95
2022-08-26T17:30:14.354Z,22.81
2022-08-26T17:32:41.622Z,22.43
2022-08-26T17:35:08.908Z,22.38
2022-08-26T17:37:40.404Z,22.04
2022-08-26T17:40:07.904Z,21.89
2022-08-26T17:42:35.225Z,22.03
2022-08-26T17:45:02.806Z,22.16
2022-08-26T17:47:30.095Z,22.32
2022-08-26T17:49:57.702Z,22.07
2022-08-26T17:52:25.152Z,21.99
2022-08-26T17:54:52.635Z,22.15
2022-08-26T17:57:19.929Z,22.09
2022-08-26T17:59:48.762Z,21.76
2022-08-26T18:02:16.635Z,21.24
2022-08-26T18:04:44.113Z,20.94
2022-08-26T18:07:11.533Z,21.05
2022-08-26T18:09:39.044Z,20.97
2022-08-26T18:12:06.454Z,20.99
2022-08-26T18:14:33.931Z,20.70
2022-08-26T18:17:01.365Z,20.36
2022-08-26T18:19:28.811Z,20.23
2022-08-26T18:21:56.289Z,20.09
2022-08-26T18:24:23.767Z,20.07
2022-08-26T18:26:51.208Z,20.09
2022-08-26T18:29:18.664Z,20.07
2022-08-26T18:31:46.129Z,19.97
2022-08-26T18:34:13.573Z,20.05
2022-08-26T18:36:41.028Z,20.02
2022-08-26T18:39:08.427Z,20.08
2022-08-26T18:41:37.989Z,20.28
2022-08-26T18:44:05.461Z,20.27
2022-08-26T18:46:32.999Z,20.20
2022-08-26T18:49:00.385Z,20.15
2022-08-26T18:51:28.253Z,20.10
2022-08-26T18:53:55.687Z,20.08
2022-08-26T18:56:23.156Z,20.03
2022-08-26T18:58:50.609Z,19.89
2022-08-26T19:01:18.158Z,19.71
2022-08-26T19:03:45.511Z,19.85
2022-08-26T19:06:12.980Z,19.89
2022-08-26T19:08:42.621Z,19.79
2022-08-26T19:11:12.400Z,19.78
2022-08-26T19:13:41.216Z,19.88
2022-08-26T19:16:08.545Z,19.86
2022-08-26T19:18:36.020Z,19.78
2022-08-26T19:21:04.700Z,19.82
2022-08-26T19:23:32.617Z,19.74
2022-08-26T19:26:00.117Z,19.90
2022-08-26T19:28:27.401Z,19.89
2022-08-26T19:30:54.967Z,19.90
2022-08-26T19:33:22.406Z,20.01
2022-08-26T19:35:49.688Z,20.10
2022-08-26T19:38:17.302Z,20.16
2022-08-26T19:40:44.791Z,20.03
2022-08-26T19:43:12.204Z,20.01
2022-08-26T19:45:39.764Z,19.91
2022-08-26T19:48:07.184Z,20.16
2022-08-26T19:50:34.988Z,20.12
2022-08-26T19:53:02.457Z,20.08
2022-08-26T19:55:29.970Z,19.84
2022-08-26T19:57:57.367Z,19.84
2022-08-26T20:00:24.821Z,19.35
2022-08-26T20:02:52.308Z,19.27
2022-08-26T20:05:19.780Z,18.98
2022-08-26T20:07:47.192Z,18.93
2022-08-26T20:10:14.672Z,18.98
2022-08-26T20:12:42.104Z,19.24
2022-08-26T20:15:09.581Z,18.97
2022-08-26T20:17:36.849Z,19.08
2022-08-26T20:20:04.475Z,19.09
2022-08-26T20:22:31.965Z,18.99
2022-08-26T20:24:59.386Z,18.80
2022-08-26T20:27:26.858Z,18.61
2022-08-26T20:30:05.370Z,19.00
2022-08-26T20:32:35.586Z,19.03
2022-08-26T20:35:03.182Z,19.00
2022-08-26T20:37:30.612Z,18.54
2022-08-26T20:39:58.104Z,18.44
2022-08-26T20:42:25.558Z,17.94
2022-08-26T20:44:54.657Z,17.84
2022-08-26T20:47:22.492Z,17.65
2022-08-26T20:49:52.306Z,17.22
2022-08-26T20:52:20.269Z,17.18
2022-08-26T20:54:47.738Z,17.10
2022-08-26T20:57:15.212Z,17.14
2022-08-26T20:59:42.650Z,17.29
2022-08-26T21:02:10.164Z,17.20
2022-08-26T21:04:37.638Z,17.68
2022-08-26T21:07:05.026Z,17.73
2022-08-26T21:09:33.711Z,17.87
2022-08-26T21:12:01.183Z,17.64
2022-08-26T21:14:29.029Z,17.72
2022-08-26T21:16:57.435Z,17.81
2022-08-26T21:19:24.794Z,17.59
2022-08-26T21:21:52.222Z,17.45
2022-08-26T21:24:19.733Z,17.32
2022-08-26T21:26:47.139Z,17.39
2022-08-26T21:29:14.608Z,17.31
2022-08-26T21:31:46.022Z,17.71
2022-08-26T21:34:14.025Z,17.68
2022-08-26T21:36:41.566Z,17.82
2022-08-26T21:39:11.682Z,18.10
2022-08-26T21:41:39.665Z,18.09
2022-08-26T21:44:07.155Z,17.99
2022-08-26T21:46:34.571Z,17.95
2022-08-26T21:49:02.028Z,18.11
2022-08-26T21:51:29.613Z,17.92
2022-08-26T21:53:56.943Z,17.65
2022-08-26T21:56:24.203Z,17.69
2022-08-26T21:58:52.483Z,17.73
2022-08-26T22:01:20.180Z,17.90
2022-08-26T22:03:47.961Z,17.59
2022-08-26T22:06:15.469Z,17.60
2022-08-26T22:08:42.928Z,17.25
2022-08-26T22:11:10.406Z,17.32
2022-08-26T22:13:37.684Z,17.51
2022-08-26T22:16:05.326Z,17.59
2022-08-26T22:18:32.752Z,17.48
2022-08-26T22:21:00.237Z,17.47
2022-08-26T22:23:27.685Z,17.82
2022-08-26T22:25:55.237Z,17.77
2022-08-26T22:28:22.594Z,17.85
2022-08-26T22:30:50.093Z,17.48
2022-08-26T22:33:17.385Z,17.31
2022-08-26T22:35:44.947Z,17.00
2022-08-26T22:38:12.463Z,17.17
2022-08-26T22:40:39.900Z,17.29
2022-08-26T22:43:07.383Z,17.40
2022-08-26T22:45:34.819Z,17.44
2022-08-26T22:48:02.353Z,17.48
2022-08-26T22:50:29.728Z,17.61
2022-08-26T22:52:57.151Z,17.63
2022-08-26T22:55:24.424Z,17.66
2022-08-26T22:57:52.083Z,17.43
2022-08-26T23:00:19.537Z,17.50
2022-08-26T23:02:59.313Z,17.36
2022-08-26T23:05:26.739Z,17.35
2022-08-26T23:07:54.228Z,17.57
2022-08-26T23:10:21.661Z,17.33
2022-08-26T23:12:49.134Z,17.27
2022-08-26T23:15:16.571Z,17.38
2022-08-26T23:17:46.100Z,17.19
2022-08-26T23:20:13.562Z,17.12
2022-08-26T23:22:40.835Z,17.30
2022-08-26T23:25:08.470Z,17.13
2022-08-26T23:27:37.329Z,17.00
2022-08-26T23:30:04.997Z,17.03
2022-08-26T23:32:32.296Z,16.87
2022-08-26T23:34:59.917Z,17.04
2022-08-26T23:37:29.820Z,17.08
2022-08-26T23:39:57.344Z,17.14
2022-08-26T23:42:24.749Z,17.06
2022-08-26T23:44:56.304Z,16.95
2022-08-26T23:47:23.797Z,16.97
2022-08-26T23:49:51.230Z,16.93
2022-08-26T23:52:18.670Z,16.92
2022-08-26T23:54:46.154Z,16.73
2022-08-26T23:57:13.626Z,17.08
2022-08-26T23:59:41.045Z,16.84
